Terminal Aerodrome Forecast
Issued by NWS

Current Version | Previous Version | Text Only | Print | Product List | Glossary On
Versions: 1 2 3 4 5 6 7 8 9 10 11 12 13 14 15 16 17 18 19 20 21 22 23 24 25 26 27 28 29 30 31
000
FTUS42 KJAX 180500
TAFCRG
TAF
KCRG 180527Z 1806/1906 07013G20KT P6SM SCT012 SCT030 BKN060
     FM181400 09017G26KT 5SM -RA BR OVC009
     FM181900 12018G26KT 2SM RA BR OVC007
     FM190400 16013G20KT 3SM -RA BR BKN010=

USA.gov is the U.S. government's official web portal to all federal, state and local government web resources and services.